Time;durP1;ratioP1;P1;durP2;ratioP2;P2;SDS_P1;SDS_P2;PMS_P1;PMS_P2;Temp;Humidity;BMP_temperature;BMP_pressure;BME280_temperature;BME280_humidity;BME280_pressure;Samples;Min_cycle;Max_cycle;Signal;HPM_P1;HPM_P2
2021/01/15 00:01:23;;;;;;;6.32;4.88;;;;;;;1.70;94.66;101233.06;5004137;28;20049;-58
2021/01/15 00:03:51;;;;;;;8.95;5.22;;;;;;;1.83;95.69;101232.28;5003929;28;21508;-55
2021/01/15 00:06:20;;;;;;;8.77;5.00;;;;;;;1.50;96.49;101229.16;5003754;28;20050;-56
2021/01/15 00:08:46;;;;;;;6.88;4.30;;;;;;;1.56;96.46;101230.34;5004022;28;20050;-59
2021/01/15 00:11:32;;;;;;;7.70;5.30;;;;;;;1.52;96.25;101226.72;5003876;28;20095;-58
2021/01/15 00:14:01;;;;;;;8.23;5.63;;;;;;;1.40;95.80;101226.75;5019396;28;20045;-58
2021/01/15 00:16:29;;;;;;;9.13;5.32;;;;;;;1.98;94.76;101225.75;5023765;28;20107;-55
2021/01/15 00:18:58;;;;;;;8.02;5.30;;;;;;;1.34;96.39;101236.41;5018582;28;20128;-59
2021/01/15 00:21:26;;;;;;;8.32;4.90;;;;;;;1.45;96.38;101237.16;5023960;28;20831;-59
2021/01/15 00:23:59;;;;;;;8.73;5.65;;;;;;;1.35;97.33;101237.28;5023802;28;20049;-58
2021/01/15 00:26:28;;;;;;;9.57;5.15;;;;;;;1.50;96.76;101235.84;5022996;28;20524;-59
2021/01/15 00:28:55;;;;;;;7.07;5.18;;;;;;;1.24;97.07;101232.34;5023622;28;20053;-57
2021/01/15 00:31:40;;;;;;;9.77;5.57;;;;;;;1.22;97.45;101233.88;5023668;28;20117;-55
2021/01/15 00:34:10;;;;;;;8.80;5.68;;;;;;;1.36;97.43;101231.47;5019698;28;20160;-59
2021/01/15 00:36:38;;;;;;;9.05;5.32;;;;;;;1.18;97.19;101231.91;5022067;28;20076;-58
2021/01/15 00:39:06;;;;;;;8.75;5.32;;;;;;;1.43;96.31;101237.06;5023474;28;20081;-56
2021/01/15 00:41:37;;;;;;;7.72;5.20;;;;;;;1.47;95.89;101233.97;5023750;28;20111;-59
2021/01/15 00:44:05;;;;;;;9.90;5.30;;;;;;;1.27;96.59;101237.59;5023432;28;20464;-56
2021/01/15 00:46:32;;;;;;;9.40;5.93;;;;;;;1.15;97.43;101238.38;5023408;28;20176;-59
2021/01/15 00:49:05;;;;;;;6.82;5.38;;;;;;;1.37;96.56;101244.19;5023653;28;20133;-58
2021/01/15 00:51:35;;;;;;;10.60;5.43;;;;;;;1.27;96.36;101246.81;5023409;28;20073;-59
2021/01/15 00:54:06;;;;;;;10.25;5.72;;;;;;;1.26;96.42;101243.44;5023787;28;20455;-59
2021/01/15 00:56:32;;;;;;;8.90;5.55;;;;;;;1.34;95.88;101246.50;5023111;28;20045;-57
2021/01/15 00:58:59;;;;;;;9.68;4.95;;;;;;;1.38;95.76;101245.94;5007613;28;20041;-58
2021/01/15 01:01:26;;;;;;;7.05;4.97;;;;;;;1.74;94.28;101242.59;5003286;28;20050;-59
2021/01/15 01:03:52;;;;;;;7.75;4.70;;;;;;;1.70;94.56;101245.69;5003396;28;20046;-59
2021/01/15 01:06:21;;;;;;;9.02;5.45;;;;;;;1.62;94.27;101251.88;5002992;28;20085;-59
2021/01/15 01:08:49;;;;;;;9.68;5.28;;;;;;;1.48;95.42;101258.47;5003091;28;20115;-59
2021/01/15 01:11:20;;;;;;;7.30;5.00;;;;;;;1.53;95.12;101256.25;5002540;28;20114;-58
2021/01/15 01:13:48;;;;;;;8.30;4.97;;;;;;;1.70;94.81;101258.31;5002755;28;20144;-59
2021/01/15 01:16:16;;;;;;;9.02;4.97;;;;;;;1.71;93.61;101260.09;5002608;28;20061;-58
2021/01/15 01:18:43;;;;;;;9.73;5.28;;;;;;;1.47;94.99;101258.34;5002498;28;20522;-57
2021/01/15 01:21:11;;;;;;;8.20;4.97;;;;;;;1.61;93.66;101262.72;5002770;28;20080;-58
2021/01/15 01:23:38;;;;;;;7.32;5.18;;;;;;;1.24;95.18;101274.34;5002382;28;20665;-59
2021/01/15 01:26:04;;;;;;;9.60;5.03;;;;;;;1.70;93.43;101275.97;5002306;28;20050;-55
2021/01/15 01:28:31;;;;;;;7.28;4.93;;;;;;;1.54;93.44;101273.16;5002764;28;20461;-57
2021/01/15 01:30:57;;;;;;;7.78;4.50;;;;;;;1.36;94.30;101279.41;5002495;28;20076;-59
2021/01/15 01:33:24;;;;;;;8.80;5.50;;;;;;;1.35;95.53;101276.00;5002522;28;20060;-59
2021/01/15 01:35:51;;;;;;;7.97;5.20;;;;;;;1.46;95.00;101280.16;5002434;28;20485;-59
2021/01/15 01:38:18;;;;;;;9.75;5.32;;;;;;;1.25;94.55;101289.63;4993289;28;20119;-59
2021/01/15 01:40:45;;;;;;;7.22;4.72;;;;;;;1.32;94.91;101288.41;5002268;28;20816;-57
2021/01/15 01:43:13;;;;;;;9.27;5.65;;;;;;;1.50;93.33;101284.66;5002393;28;20058;-56
2021/01/15 01:45:39;;;;;;;12.07;5.07;;;;;;;1.21;94.83;101287.63;5000121;28;20054;-58
2021/01/15 01:48:08;;;;;;;8.98;5.38;;;;;;;1.53;93.54;101292.47;5001927;28;20584;-55
2021/01/15 01:50:35;;;;;;;8.80;5.30;;;;;;;1.27;94.26;101294.75;5002207;28;20060;-59
2021/01/15 01:53:04;;;;;;;8.30;4.70;;;;;;;1.23;94.00;101292.78;5002740;28;20465;-58
2021/01/15 01:55:31;;;;;;;7.43;4.63;;;;;;;0.91;95.30;101286.25;4996962;28;20089;-53
2021/01/15 01:57:57;;;;;;;8.73;5.70;;;;;;;0.92;95.21;101284.59;5002268;28;20454;-57
2021/01/15 02:00:24;;;;;;;10.55;5.78;;;;;;;1.32;94.48;101285.88;5002221;28;20053;-59
2021/01/15 02:02:51;;;;;;;7.72;5.07;;;;;;;1.18;94.37;101279.84;5002244;28;20057;-58
2021/01/15 02:05:17;;;;;;;9.38;5.32;;;;;;;1.19;94.59;101286.63;5002499;28;20069;-54
2021/01/15 02:07:43;;;;;;;9.80;5.10;;;;;;;1.00;95.05;101281.88;5002169;28;20049;-57
2021/01/15 02:10:51;;;;;;;9.48;5.13;;;;;;;0.95;94.97;101285.72;5002305;28;20054;-58
2021/01/15 02:13:42;;;;;;;10.48;4.75;;;;;;;0.93;95.07;101289.78;4953149;28;20164;-57
2021/01/15 02:16:11;;;;;;;10.98;4.60;;;;;;;0.89;95.75;101289.44;5018143;28;20139;-58
2021/01/15 02:18:45;;;;;;;7.38;4.50;;;;;;;0.86;95.22;101295.13;5021946;28;20119;-58
2021/01/15 02:21:29;;;;;;;8.60;4.97;;;;;;;0.69;96.29;101292.97;5022188;28;20045;-59
2021/01/15 02:24:11;;;;;;;10.82;5.22;;;;;;;0.63;96.72;101287.50;5016612;28;20045;-59
2021/01/15 02:27:02;;;;;;;10.15;4.80;;;;;;;0.75;96.56;101290.94;5021717;28;20088;-59
2021/01/15 02:29:31;;;;;;;8.32;5.03;;;;;;;0.82;96.27;101293.13;5021961;28;20532;-57
2021/01/15 02:32:18;;;;;;;7.95;5.13;;;;;;;0.67;96.65;101295.41;5016810;28;20053;-59
2021/01/15 02:35:08;;;;;;;9.60;5.43;;;;;;;0.67;96.71;101299.56;5020181;28;20159;-59
2021/01/15 02:37:53;;;;;;;9.63;5.40;;;;;;;0.82;95.28;101293.13;5001617;28;20516;-57
2021/01/15 02:40:30;;;;;;;8.38;4.88;;;;;;;0.64;97.44;101296.81;5001888;28;20054;-56
2021/01/15 02:42:57;;;;;;;10.48;5.88;;;;;;;0.71;97.04;101299.91;5002242;28;20050;-55
2021/01/15 02:45:24;;;;;;;9.05;5.30;;;;;;;0.92;96.27;101304.78;5001963;28;20503;-59
2021/01/15 02:47:53;;;;;;;8.38;5.03;;;;;;;0.92;95.73;101299.72;5001698;28;20057;-58
2021/01/15 02:50:27;;;;;;;10.70;5.85;;;;;;;0.76;96.50;101303.66;5001765;28;20063;-56
2021/01/15 02:52:54;;;;;;;8.55;5.20;;;;;;;0.89;96.28;101299.53;5002028;28;20046;-59
2021/01/15 02:55:21;;;;;;;11.02;5.90;;;;;;;0.80;96.28;101301.38;5001692;28;20403;-57
2021/01/15 02:57:47;;;;;;;7.82;4.93;;;;;;;0.86;96.03;101311.91;5001313;28;20045;-58
2021/01/15 03:00:16;;;;;;;10.98;5.22;;;;;;;0.83;96.60;101304.09;5002422;28;20054;-56
2021/01/15 03:03:31;;;;;;;8.52;5.55;;;;;;;1.13;95.69;101306.38;5005759;28;20510;-57
2021/01/15 03:06:01;;;;;;;7.53;5.03;;;;;;;0.72;96.46;101314.25;5000084;28;20099;-56
2021/01/15 03:08:28;;;;;;;10.30;5.50;;;;;;;0.92;95.00;101310.69;5005715;28;20053;-57
2021/01/15 03:11:00;;;;;;;11.02;6.38;;;;;;;0.64;96.97;101312.81;5005697;28;20108;-55
2021/01/15 03:13:29;;;;;;;12.82;6.28;;;;;;;0.53;97.91;101323.72;5005905;28;20042;-57
2021/01/15 03:16:08;;;;;;;10.02;5.20;;;;;;;0.65;97.05;101322.16;5000347;28;20045;-55
2021/01/15 03:18:36;;;;;;;8.90;5.43;;;;;;;0.52;98.05;101321.97;5024874;28;20068;-58
2021/01/15 03:21:03;;;;;;;11.15;6.30;;;;;;;0.50;98.02;101323.47;5025981;28;20608;-51
2021/01/15 03:23:35;;;;;;;9.13;4.90;;;;;;;0.58;97.66;101327.47;5025656;28;20202;-58
2021/01/15 03:26:02;;;;;;;8.88;5.63;;;;;;;0.59;98.32;101333.38;5020872;28;20072;-56
2021/01/15 03:28:28;;;;;;;10.30;5.53;;;;;;;0.43;98.77;101331.34;5025650;28;20049;-56
2021/01/15 03:30:55;;;;;;;8.88;5.32;;;;;;;0.56;98.20;101328.13;5025724;28;20103;-58
2021/01/15 03:33:21;;;;;;;10.23;5.95;;;;;;;0.59;98.50;101319.13;5025213;28;20053;-57
2021/01/15 03:35:48;;;;;;;14.00;6.00;;;;;;;0.80;97.72;101324.06;5025287;28;20087;-58
2021/01/15 03:38:14;;;;;;;12.55;6.18;;;;;;;0.65;98.02;101319.63;5024786;28;20049;-58
2021/01/15 03:40:46;;;;;;;12.02;5.70;;;;;;;0.47;98.86;101323.28;5024929;28;20053;-59
2021/01/15 03:43:20;;;;;;;10.02;5.55;;;;;;;0.60;98.43;101320.00;5024823;28;20053;-56
2021/01/15 03:45:48;;;;;;;13.05;6.18;;;;;;;0.72;98.23;101314.25;5023494;28;20053;-57
2021/01/15 03:48:16;;;;;;;11.30;5.88;;;;;;;0.82;97.91;101315.81;5024964;28;20049;-56
2021/01/15 03:50:43;;;;;;;13.68;6.10;;;;;;;0.74;97.34;101317.78;5025262;28;20776;-57
2021/01/15 03:53:14;;;;;;;9.82;6.00;;;;;;;0.82;95.93;101323.38;5024914;28;20053;-56
2021/01/15 03:55:41;;;;;;;13.23;6.18;;;;;;;0.82;96.15;101320.88;5023088;28;20792;-58
2021/01/15 03:58:08;;;;;;;10.95;5.88;;;;;;;0.64;97.44;101316.97;5024756;28;20053;-54
2021/01/15 04:00:34;;;;;;;9.63;5.97;;;;;;;0.57;98.13;101325.72;5025027;28;20045;-54
2021/01/15 04:03:05;;;;;;;14.40;6.55;;;;;;;0.62;98.04;101316.00;5024915;28;20134;-56
2021/01/15 04:05:32;;;;;;;9.43;5.93;;;;;;;0.74;97.86;101317.78;5024835;28;20045;-56
2021/01/15 04:07:59;;;;;;;9.30;5.88;;;;;;;0.83;97.63;101322.63;5024448;28;20099;-56
2021/01/15 04:10:25;;;;;;;10.52;6.07;;;;;;;0.82;96.84;101313.31;5024386;28;20497;-55
2021/01/15 04:12:51;;;;;;;10.40;6.00;;;;;;;0.88;97.61;101307.84;5024283;28;20045;-58
2021/01/15 04:15:18;;;;;;;11.05;6.63;;;;;;;0.92;96.34;101299.72;5024540;28;20126;-57
2021/01/15 04:17:45;;;;;;;12.25;7.07;;;;;;;0.87;96.33;101296.00;5024305;28;20053;-58
2021/01/15 04:20:13;;;;;;;8.55;5.22;;;;;;;1.02;95.05;101295.50;5024520;28;20057;-58
2021/01/15 04:22:45;;;;;;;13.25;5.63;;;;;;;0.82;96.54;101307.38;5022196;28;20037;-58
2021/01/15 04:25:13;;;;;;;14.80;7.07;;;;;;;0.78;97.60;101311.31;5024292;28;20049;-56
2021/01/15 04:27:40;;;;;;;9.48;6.13;;;;;;;0.67;97.12;101313.03;5022156;28;20120;-56
2021/01/15 04:30:09;;;;;;;10.52;6.35;;;;;;;0.74;97.42;101316.91;5025030;28;20060;-53
2021/01/15 04:32:42;;;;;;;13.43;6.35;;;;;;;0.56;97.88;101321.44;5027096;28;20099;-56
2021/01/15 04:35:09;;;;;;;9.35;6.10;;;;;;;0.70;98.18;101310.75;5028597;28;20755;-55
2021/01/15 04:37:35;;;;;;;12.85;6.95;;;;;;;0.79;97.72;101314.72;5026242;28;20053;-53
2021/01/15 04:40:03;;;;;;;9.20;5.90;;;;;;;0.78;96.90;101306.28;5025965;28;20057;-52
2021/01/15 04:42:35;;;;;;;11.38;6.63;;;;;;;0.85;96.91;101315.19;5025316;28;20080;-51
2021/01/15 04:45:02;;;;;;;12.63;7.10;;;;;;;0.69;97.20;101309.00;5020932;28;20045;-55
2021/01/15 04:47:30;;;;;;;10.80;6.30;;;;;;;0.61;97.33;101310.06;5025044;28;20052;-51
2021/01/15 04:49:57;;;;;;;16.95;7.15;;;;;;;0.71;96.73;101311.63;5025021;28;20065;-54
2021/01/15 04:52:25;;;;;;;11.98;7.00;;;;;;;0.69;96.92;101309.00;5024898;28;20053;-54
2021/01/15 04:54:57;;;;;;;9.40;6.32;;;;;;;0.76;96.12;101311.22;5025071;28;20052;-56
2021/01/15 04:57:26;;;;;;;14.10;6.70;;;;;;;0.73;96.00;101310.97;5024614;28;20457;-53
2021/01/15 04:59:55;;;;;;;12.65;7.00;;;;;;;0.86;96.60;101315.28;5024666;28;20045;-53
2021/01/15 05:02:22;;;;;;;14.70;7.22;;;;;;;0.72;97.07;101303.31;5025667;28;20084;-57
2021/01/15 05:04:55;;;;;;;11.93;6.97;;;;;;;0.90;96.09;101316.41;5024711;28;20045;-59
2021/01/15 05:07:26;;;;;;;9.65;6.53;;;;;;;0.88;95.10;101318.81;5024300;28;20107;-56
2021/01/15 05:09:56;;;;;;;11.60;6.63;;;;;;;0.90;94.77;101316.41;5024723;28;20053;-56
2021/01/15 05:12:29;;;;;;;10.50;6.18;;;;;;;1.04;93.78;101325.88;5024641;28;20103;-58
2021/01/15 05:14:56;;;;;;;10.80;6.15;;;;;;;0.70;94.32;101332.56;5019041;28;20107;-56
2021/01/15 05:17:25;;;;;;;11.50;6.25;;;;;;;0.71;95.42;101334.31;5024076;28;20136;-57
2021/01/15 05:19:55;;;;;;;10.68;6.60;;;;;;;0.86;94.75;101332.06;5024281;28;20041;-59
2021/01/15 05:22:22;;;;;;;9.50;6.20;;;;;;;1.01;93.47;101330.66;5024049;28;20053;-55
2021/01/15 05:24:49;;;;;;;9.70;6.38;;;;;;;0.70;93.08;101343.53;5023930;28;20119;-59
2021/01/15 05:30:22;;;;;;;10.13;6.15;;;;;;;0.84;93.05;101336.13;5019311;28;20474;-58
2021/01/15 05:32:53;;;;;;;10.25;5.82;;;;;;;0.96;93.29;101332.84;5022990;28;20160;-59
2021/01/15 05:35:39;;;;;;;9.48;5.85;;;;;;;1.16;91.73;101331.81;5024166;28;20529;-57
2021/01/15 05:38:11;;;;;;;10.10;6.70;;;;;;;0.86;91.59;101335.47;5004470;28;20054;-55
2021/01/15 05:40:43;;;;;;;9.93;6.40;;;;;;;0.70;92.99;101335.97;5003895;28;20049;-58
2021/01/15 05:43:32;;;;;;;9.10;5.47;;;;;;;1.05;91.91;101341.88;5004169;28;20119;-55
2021/01/15 05:46:14;;;;;;;10.43;5.97;;;;;;;0.82;92.34;101342.69;5003930;28;20116;-59
2021/01/15 05:48:49;;;;;;;9.63;6.18;;;;;;;0.84;90.80;101338.66;5001767;28;20041;-57
2021/01/15 05:51:33;;;;;;;9.27;5.85;;;;;;;0.73;90.34;101337.81;5003836;28;20403;-58
2021/01/15 05:54:01;;;;;;;9.20;5.65;;;;;;;0.70;91.21;101343.53;4999052;28;20049;-57
2021/01/15 05:56:37;;;;;;;10.50;6.25;;;;;;;0.74;91.75;101355.59;5003841;28;20045;-56
2021/01/15 05:59:14;;;;;;;9.10;6.20;;;;;;;1.11;90.28;101349.88;5019312;28;20330;-58
2021/01/15 06:01:53;;;;;;;9.18;6.90;;;;;;;0.75;90.18;101357.34;5021531;28;20046;-58
2021/01/15 06:04:32;;;;;;;10.10;6.07;;;;;;;0.94;90.56;101357.09;5024007;28;20529;-57
2021/01/15 06:07:10;;;;;;;9.82;6.63;;;;;;;0.58;92.01;101366.91;5018682;28;20052;-58
2021/01/15 06:09:38;;;;;;;10.13;6.93;;;;;;;1.03;90.81;101366.97;5023193;28;20049;-58
2021/01/15 06:12:14;;;;;;;9.95;6.90;;;;;;;0.98;90.06;101370.81;5024245;28;20541;-58
2021/01/15 06:14:56;;;;;;;10.05;6.22;;;;;;;0.67;90.01;101373.53;5021456;28;20041;-55
2021/01/15 06:17:27;;;;;;;9.90;6.43;;;;;;;0.62;91.04;101377.34;5023186;28;20069;-57
2021/01/15 06:20:01;;;;;;;11.60;6.97;;;;;;;0.85;91.12;101383.25;5023178;28;20755;-54
2021/01/15 06:22:36;;;;;;;10.07;6.88;;;;;;;0.93;90.74;101390.63;5023662;28;20045;-59
2021/01/15 06:25:26;;;;;;;13.68;7.40;;;;;;;0.81;90.80;101389.69;5019128;28;20084;-56
2021/01/15 06:28:01;;;;;;;10.70;6.45;;;;;;;0.71;89.56;101395.69;5025685;28;20143;-58
2021/01/15 06:30:30;;;;;;;13.90;7.03;;;;;;;0.91;88.31;101392.16;5033171;28;20049;-57
2021/01/15 06:33:17;;;;;;;9.30;6.25;;;;;;;0.92;87.58;101398.94;5035134;28;20128;-57
2021/01/15 06:35:46;;;;;;;11.15;6.80;;;;;;;0.86;87.96;101406.06;5018956;28;20099;-56
2021/01/15 06:38:18;;;;;;;9.38;5.85;;;;;;;0.86;88.12;101402.66;4999974;28;20058;-58
2021/01/15 06:40:49;;;;;;;8.65;5.78;;;;;;;0.77;87.85;101406.22;5000548;28;20852;-58
2021/01/15 06:43:33;;;;;;;8.55;5.60;;;;;;;0.35;87.33;101411.38;5005709;28;20050;-54
2021/01/15 06:46:02;;;;;;;7.32;4.85;;;;;;;0.59;88.20;101406.47;5001268;28;20618;-56
2021/01/15 06:48:34;;;;;;;8.05;5.38;;;;;;;0.67;87.05;101411.34;5006086;28;20137;-56
2021/01/15 06:51:02;;;;;;;7.70;5.43;;;;;;;0.79;86.63;101413.03;5002625;28;20506;-56
2021/01/15 06:53:31;;;;;;;9.75;5.60;;;;;;;0.78;86.93;101417.19;5007521;28;20457;-57
2021/01/15 06:56:01;;;;;;;8.07;5.30;;;;;;;0.57;86.64;101408.88;5001504;28;20058;-58
2021/01/15 06:58:30;;;;;;;8.07;5.00;;;;;;;0.57;88.13;101408.88;5007209;28;20088;-58
2021/01/15 07:01:21;;;;;;;8.27;5.05;;;;;;;0.60;87.79;101413.25;5001917;28;20877;-56
2021/01/15 07:03:51;;;;;;;8.15;5.65;;;;;;;0.43;87.41;101412.84;5005930;28;20506;-57
2021/01/15 07:06:29;;;;;;;8.68;5.25;;;;;;;0.42;87.35;101416.13;5006739;28;20045;-58
2021/01/15 07:08:56;;;;;;;11.45;5.85;;;;;;;0.41;87.73;101416.00;5006761;28;20049;-57
2021/01/15 07:11:26;;;;;;;10.68;5.65;;;;;;;0.34;86.85;101417.16;5006814;28;20120;-58
2021/01/15 07:13:57;;;;;;;7.93;5.55;;;;;;;0.38;87.29;101420.81;5006717;28;20085;-58
2021/01/15 07:16:36;;;;;;;7.70;5.60;;;;;;;0.44;88.30;101431.38;5009145;28;20108;-55
2021/01/15 07:19:14;;;;;;;9.30;5.53;;;;;;;0.41;88.26;101432.00;5022319;28;20045;-58
2021/01/15 07:22:04;;;;;;;8.70;5.55;;;;;;;0.28;88.07;101425.88;5026660;28;20476;-55
2021/01/15 07:24:33;;;;;;;9.57;5.20;;;;;;;0.83;86.81;101432.66;4998644;28;20131;-54
2021/01/15 07:27:00;;;;;;;9.60;5.68;;;;;;;0.64;86.97;101436.28;5001739;28;20049;-56
2021/01/15 07:29:29;;;;;;;9.13;6.18;;;;;;;0.43;87.58;101443.09;5006788;28;20112;-56
2021/01/15 07:31:59;;;;;;;8.75;6.30;;;;;;;0.56;88.04;101446.56;5006704;28;20057;-55
2021/01/15 07:34:28;;;;;;;7.97;5.50;;;;;;;0.63;89.07;101447.13;5005761;28;20073;-54
2021/01/15 07:36:55;;;;;;;8.43;5.35;;;;;;;0.83;86.60;101447.78;5005645;28;20536;-57
2021/01/15 07:39:25;;;;;;;8.55;5.63;;;;;;;0.81;85.77;101446.81;5005598;28;20054;-54
2021/01/15 07:41:53;;;;;;;9.27;5.72;;;;;;;0.59;88.90;101444.25;5006470;28;20049;-57
2021/01/15 07:44:23;;;;;;;10.05;5.22;;;;;;;0.96;86.95;101447.97;5006733;28;20104;-55
2021/01/15 07:46:51;;;;;;;8.23;5.93;;;;;;;0.79;87.13;101446.69;5005465;28;20129;-57
2021/01/15 07:49:18;;;;;;;9.38;5.88;;;;;;;0.46;88.22;101457.53;5006680;28;20150;-57
2021/01/15 07:52:10;;;;;;;10.68;6.60;;;;;;;0.33;88.86;101450.69;5006706;28;20053;-52
2021/01/15 07:54:58;;;;;;;11.50;6.50;;;;;;;0.27;89.34;101446.78;5025983;28;20045;-55
2021/01/15 07:57:25;;;;;;;7.97;5.60;;;;;;;0.41;88.43;101457.19;5024379;28;20049;-54
2021/01/15 07:59:51;;;;;;;11.15;6.07;;;;;;;0.30;88.67;101458.00;5023178;28;20068;-54
2021/01/15 08:02:18;;;;;;;9.05;5.70;;;;;;;0.48;88.15;101453.53;5025600;28;20054;-56
2021/01/15 08:04:47;;;;;;;8.98;5.78;;;;;;;0.44;87.93;101457.44;5027080;28;20049;-54
2021/01/15 08:07:35;;;;;;;8.73;6.07;;;;;;;0.55;87.64;101459.91;5025676;28;20122;-55
2021/01/15 08:10:02;;;;;;;9.93;6.10;;;;;;;0.20;89.83;101460.53;5026073;28;20095;-51
2021/01/15 08:12:40;;;;;;;10.48;6.28;;;;;;;0.97;86.52;101460.72;5026017;28;20084;-54
2021/01/15 08:15:28;;;;;;;9.60;6.03;;;;;;;0.26;87.22;101466.06;5001929;28;20104;-54
2021/01/15 08:17:54;;;;;;;11.27;6.57;;;;;;;0.65;86.90;101473.38;5003409;28;20418;-57
2021/01/15 08:20:22;;;;;;;9.25;5.70;;;;;;;0.57;87.59;101471.00;5003077;28;20081;-56
2021/01/15 08:22:49;;;;;;;10.48;5.68;;;;;;;0.56;87.96;101471.75;5004753;28;20050;-54
2021/01/15 08:25:29;;;;;;;10.85;6.38;;;;;;;1.02;85.42;101463.59;5004147;28;20123;-51
2021/01/15 08:27:56;;;;;;;8.55;5.53;;;;;;;0.58;85.28;101467.72;5000796;28;20057;-55
2021/01/15 08:30:24;;;;;;;8.77;6.15;;;;;;;0.46;86.94;101462.56;5006353;28;20050;-54
2021/01/15 08:32:51;;;;;;;9.57;6.68;;;;;;;0.62;86.40;101468.06;5003286;28;20069;-51
2021/01/15 08:35:23;;;;;;;10.23;7.05;;;;;;;0.77;86.42;101474.28;4999859;28;20050;-53
2021/01/15 08:38:01;;;;;;;10.77;6.45;;;;;;;0.37;87.46;101467.81;4995492;28;20046;-53
2021/01/15 08:40:31;;;;;;;9.18;6.55;;;;;;;0.38;87.82;101473.72;5004363;28;20477;-53
2021/01/15 08:42:58;;;;;;;8.52;6.10;;;;;;;0.50;88.08;101479.69;5004318;28;20104;-53
2021/01/15 08:45:27;;;;;;;12.15;6.65;;;;;;;0.40;88.26;101479.75;5004533;28;20569;-58
2021/01/15 08:48:06;;;;;;;10.50;6.47;;;;;;;0.84;87.25;101482.34;4989804;28;20512;-57
2021/01/15 08:50:44;;;;;;;8.48;5.65;;;;;;;0.48;86.27;101484.63;5018858;28;20276;-51
2021/01/15 08:53:25;;;;;;;9.75;5.72;;;;;;;0.64;85.27;101475.75;5023010;28;20132;-58
2021/01/15 08:55:59;;;;;;;9.05;5.93;;;;;;;0.46;86.49;101486.16;5022579;28;20046;-56
2021/01/15 08:58:35;;;;;;;10.38;6.25;;;;;;;0.15;88.43;101484.50;5022154;28;20053;-55
2021/01/15 09:01:02;;;;;;;9.25;6.07;;;;;;;0.46;88.06;101486.16;5023044;28;20128;-56
2021/01/15 09:03:30;;;;;;;7.95;5.65;;;;;;;0.35;87.60;101484.41;5023198;28;20053;-50
2021/01/15 09:06:02;;;;;;;7.97;5.30;;;;;;;0.54;87.56;101489.25;5022029;28;20053;-56
2021/01/15 09:08:36;;;;;;;9.68;5.72;;;;;;;0.39;87.11;101488.06;5024082;28;20052;-45
2021/01/15 09:11:03;;;;;;;9.85;5.63;;;;;;;0.68;86.65;101493.75;5001891;28;20046;-55
2021/01/15 09:13:30;;;;;;;8.63;5.32;;;;;;;0.17;88.17;101500.59;5001178;28;20115;-56
2021/01/15 09:15:57;;;;;;;8.48;5.30;;;;;;;0.59;87.71;101498.06;4997884;28;20524;-55
2021/01/15 09:18:24;;;;;;;7.68;5.38;;;;;;;0.55;87.04;101501.09;5002699;28;20060;-53
2021/01/15 09:20:50;;;;;;;7.30;5.45;;;;;;;0.32;88.01;101500.91;5003001;28;20049;-54
2021/01/15 09:23:17;;;;;;;8.55;5.72;;;;;;;0.33;89.79;101506.09;5002017;28;20060;-57
2021/01/15 09:25:44;;;;;;;8.48;6.25;;;;;;;0.55;88.35;101515.34;5003818;28;20065;-60
2021/01/15 09:28:11;;;;;;;9.82;6.43;;;;;;;0.29;90.63;101518.34;5003428;28;20108;-58
2021/01/15 09:30:37;;;;;;;10.35;5.95;;;;;;;0.49;90.45;101511.59;5001360;28;20049;-61
2021/01/15 09:33:04;;;;;;;9.00;7.07;;;;;;;0.23;91.79;101516.19;5000011;28;20120;-52
2021/01/15 09:35:30;;;;;;;12.15;6.47;;;;;;;0.28;90.15;101519.06;5001688;28;20054;-56
2021/01/15 09:37:57;;;;;;;11.20;7.28;;;;;;;-0.02;92.58;101515.84;5002282;28;20099;-57
2021/01/15 09:40:24;;;;;;;12.63;7.80;;;;;;;0.29;92.35;101520.84;5006701;28;20112;-55
2021/01/15 09:42:50;;;;;;;12.52;7.55;;;;;;;0.32;91.50;101513.50;5002418;28;20054;-56
2021/01/15 09:45:17;;;;;;;13.73;7.93;;;;;;;-0.17;93.52;101520.53;5015428;28;20041;-57
2021/01/15 09:47:45;;;;;;;13.77;8.90;;;;;;;0.03;92.52;101529.69;5022577;28;20077;-56
2021/01/15 09:50:12;;;;;;;12.48;8.32;;;;;;;0.26;91.83;101524.00;5022363;28;20081;-53
2021/01/15 09:52:39;;;;;;;12.40;8.23;;;;;;;0.04;93.36;101528.03;5021248;28;20134;-59
2021/01/15 09:55:05;;;;;;;12.18;8.40;;;;;;;-0.02;93.19;101529.31;5022912;28;20430;-56
2021/01/15 09:57:42;;;;;;;12.45;8.07;;;;;;;-0.03;93.89;101534.25;5009670;28;20452;-54
2021/01/15 10:00:10;;;;;;;11.48;7.97;;;;;;;0.53;89.96;101532.00;5018568;28;20041;-54
2021/01/15 10:02:37;;;;;;;11.55;7.45;;;;;;;0.18;91.87;101530.03;5021634;28;20478;-50
2021/01/15 10:05:04;;;;;;;15.38;9.20;;;;;;;0.44;92.04;101527.97;5022622;28;20045;-47
2021/01/15 10:07:30;;;;;;;14.30;8.55;;;;;;;0.80;91.00;101539.19;5021643;28;20045;-44
2021/01/15 10:09:57;;;;;;;13.85;8.75;;;;;;;0.49;91.68;101526.69;5022278;28;20503;-60
2021/01/15 10:12:23;;;;;;;14.88;9.68;;;;;;;0.09;92.07;101526.78;5021868;28;20076;-51
2021/01/15 10:14:49;;;;;;;14.20;8.52;;;;;;;0.52;91.54;101518.53;5022766;28;20049;-56
2021/01/15 10:17:17;;;;;;;13.75;9.15;;;;;;;0.19;92.78;101520.13;5024700;28;20583;-58
2021/01/15 10:19:49;;;;;;;14.65;9.40;;;;;;;0.43;93.30;101520.31;5022329;28;20081;-56
2021/01/15 10:22:15;;;;;;;15.32;9.93;;;;;;;0.01;94.84;101521.16;5021764;28;20180;-57
2021/01/15 10:24:41;;;;;;;15.68;9.52;;;;;;;0.04;93.98;101523.00;5022370;28;20053;-57
2021/01/15 10:27:08;;;;;;;14.02;9.18;;;;;;;0.06;94.08;101514.84;5022258;28;20464;-56
2021/01/15 10:29:34;;;;;;;15.27;9.05;;;;;;;0.38;94.63;101516.53;5022258;28;20058;-53
2021/01/15 10:32:01;;;;;;;14.38;9.75;;;;;;;0.17;92.56;101515.69;5022268;28;20049;-59
2021/01/15 10:34:30;;;;;;;14.88;9.32;;;;;;;0.40;91.93;101510.84;5021946;28;20121;-59
2021/01/15 10:36:56;;;;;;;15.25;9.55;;;;;;;0.17;91.26;101518.22;5021655;28;20053;-53
2021/01/15 10:39:23;;;;;;;14.10;8.93;;;;;;;-0.24;91.11;101510.69;5021871;28;20049;-55
2021/01/15 10:41:51;;;;;;;14.32;8.20;;;;;;;0.27;90.72;101517.31;5021939;28;20096;-55
2021/01/15 10:44:20;;;;;;;12.98;8.40;;;;;;;0.21;90.82;101517.72;5005184;28;20049;-60
2021/01/15 10:46:52;;;;;;;13.30;8.60;;;;;;;0.50;90.45;101507.41;5021808;28;20057;-58
2021/01/15 10:49:20;;;;;;;12.38;7.88;;;;;;;0.63;88.83;101515.19;5021928;28;20409;-57
2021/01/15 10:51:54;;;;;;;11.50;8.05;;;;;;;0.80;87.40;101515.63;5021434;28;20416;-54
2021/01/15 10:54:21;;;;;;;11.68;7.78;;;;;;;0.51;88.61;101511.72;5020405;28;20054;-54
2021/01/15 10:56:51;;;;;;;10.48;6.95;;;;;;;1.11;87.86;101508.78;5021469;28;20041;-57
2021/01/15 10:59:18;;;;;;;12.85;9.05;;;;;;;0.92;88.30;101517.44;5021848;28;20056;-57
2021/01/15 11:01:47;;;;;;;13.10;8.52;;;;;;;1.04;87.03;101516.66;5021465;28;20061;-55
2021/01/15 11:04:16;;;;;;;11.15;7.97;;;;;;;0.65;88.13;101508.66;5021876;28;20053;-55
2021/01/15 11:06:44;;;;;;;10.95;7.03;;;;;;;0.76;86.93;101506.94;5019812;28;20049;-57
2021/01/15 11:09:15;;;;;;;10.18;6.57;;;;;;;0.57;85.44;101511.31;5018270;28;20061;-56
2021/01/15 11:11:59;;;;;;;10.18;6.35;;;;;;;0.31;86.95;101504.22;5006906;28;20099;-55
2021/01/15 11:14:26;;;;;;;9.93;6.03;;;;;;;0.05;87.46;101504.63;5021315;28;20060;-54
2021/01/15 11:16:55;;;;;;;9.45;5.97;;;;;;;0.86;83.23;101508.53;5020876;28;20879;-54
2021/01/15 11:19:22;;;;;;;9.40;5.82;;;;;;;0.71;83.96;101514.16;5021102;28;20053;-53
2021/01/15 11:21:50;;;;;;;8.35;6.22;;;;;;;1.10;82.33;101512.94;5022536;28;20045;-54
2021/01/15 11:24:17;;;;;;;8.18;5.97;;;;;;;1.03;83.45;101510.72;5025037;28;20057;-52
2021/01/15 11:26:46;;;;;;;8.18;6.18;;;;;;;1.18;81.42;101506.84;5024106;28;20099;-51
2021/01/15 11:29:16;;;;;;;12.13;6.82;;;;;;;1.05;82.80;101516.75;5011795;28;20050;-54
2021/01/15 11:31:45;;;;;;;11.43;6.43;;;;;;;0.58;83.70;101515.59;5001194;28;20108;-55
2021/01/15 11:34:12;;;;;;;10.70;7.72;;;;;;;0.64;84.39;101516.06;4992513;28;20571;-57
2021/01/15 11:36:39;;;;;;;10.48;7.72;;;;;;;1.28;82.21;101518.50;4996243;28;20049;-55
2021/01/15 11:39:12;;;;;;;8.73;6.72;;;;;;;0.85;81.37;101516.88;4994289;28;20129;-57
2021/01/15 11:41:39;;;;;;;8.23;5.68;;;;;;;0.94;80.51;101510.03;4997004;28;20049;-53
2021/01/15 11:44:07;;;;;;;10.27;6.28;;;;;;;0.91;80.49;101508.13;4994138;28;20057;-56
2021/01/15 11:46:34;;;;;;;10.50;6.72;;;;;;;1.02;80.41;101514.03;5024640;28;20496;-53
2021/01/15 11:49:01;;;;;;;8.65;6.07;;;;;;;1.12;80.48;101511.44;5024278;28;20052;-53